sensor_id;sensor_type;location;lat;lon;timestamp;P1;durP1;ratioP1;P2;durP2;ratioP2
73437;SDS011;66471;56.532;21.020;2024-03-08T00:00:11;5.78;;;2.20;;
73437;SDS011;66471;56.532;21.020;2024-03-08T00:02:41;6.80;;;3.03;;
73437;SDS011;66471;56.532;21.020;2024-03-08T00:05:09;6.30;;;2.20;;
73437;SDS011;66471;56.532;21.020;2024-03-08T00:07:37;7.15;;;2.85;;
73437;SDS011;66471;56.532;21.020;2024-03-08T00:10:07;8.00;;;2.87;;
73437;SDS011;66471;56.532;21.020;2024-03-08T00:12:40;5.90;;;3.13;;
73437;SDS011;66471;56.532;21.020;2024-03-08T00:15:15;5.35;;;2.30;;
73437;SDS011;66471;56.532;21.020;2024-03-08T00:17:45;6.70;;;2.67;;
73437;SDS011;66471;56.532;21.020;2024-03-08T00:20:14;8.38;;;3.30;;
73437;SDS011;66471;56.532;21.020;2024-03-08T00:22:45;5.97;;;2.30;;
73437;SDS011;66471;56.532;21.020;2024-03-08T00:25:13;6.53;;;2.50;;
73437;SDS011;66471;56.532;21.020;2024-03-08T00:27:40;6.90;;;2.97;;
73437;SDS011;66471;56.532;21.020;2024-03-08T00:30:08;11.20;;;3.00;;
73437;SDS011;66471;56.532;21.020;2024-03-08T00:32:36;6.65;;;2.60;;
73437;SDS011;66471;56.532;21.020;2024-03-08T00:35:04;5.93;;;2.83;;
73437;SDS011;66471;56.532;21.020;2024-03-08T00:37:34;7.90;;;3.72;;
73437;SDS011;66471;56.532;21.020;2024-03-08T00:40:02;5.80;;;2.55;;
73437;SDS011;66471;56.532;21.020;2024-03-08T00:42:29;6.68;;;3.05;;
73437;SDS011;66471;56.532;21.020;2024-03-08T00:44:56;6.32;;;2.72;;
73437;SDS011;66471;56.532;21.020;2024-03-08T00:47:24;7.00;;;3.47;;
73437;SDS011;66471;56.532;21.020;2024-03-08T00:49:52;5.80;;;3.55;;
73437;SDS011;66471;56.532;21.020;2024-03-08T00:52:19;11.98;;;3.22;;
73437;SDS011;66471;56.532;21.020;2024-03-08T00:54:47;7.95;;;2.60;;
73437;SDS011;66471;56.532;21.020;2024-03-08T00:57:14;6.88;;;2.35;;
73437;SDS011;66471;56.532;21.020;2024-03-08T00:59:41;5.97;;;2.43;;
73437;SDS011;66471;56.532;21.020;2024-03-08T01:02:09;7.68;;;2.83;;
73437;SDS011;66471;56.532;21.020;2024-03-08T01:04:37;6.32;;;2.40;;
73437;SDS011;66471;56.532;21.020;2024-03-08T01:07:04;25.80;;;9.63;;
73437;SDS011;66471;56.532;21.020;2024-03-08T01:09:32;31.48;;;11.95;;
73437;SDS011;66471;56.532;21.020;2024-03-08T01:11:59;25.53;;;9.43;;
73437;SDS011;66471;56.532;21.020;2024-03-08T01:14:28;23.52;;;8.65;;
73437;SDS011;66471;56.532;21.020;2024-03-08T01:16:58;16.02;;;6.38;;
73437;SDS011;66471;56.532;21.020;2024-03-08T01:19:26;18.48;;;7.57;;
73437;SDS011;66471;56.532;21.020;2024-03-08T01:21:53;11.60;;;5.20;;
73437;SDS011;66471;56.532;21.020;2024-03-08T01:24:23;9.07;;;3.93;;
73437;SDS011;66471;56.532;21.020;2024-03-08T01:26:51;11.85;;;5.90;;
73437;SDS011;66471;56.532;21.020;2024-03-08T01:29:18;7.55;;;3.40;;
73437;SDS011;66471;56.532;21.020;2024-03-08T01:31:46;5.78;;;2.65;;
73437;SDS011;66471;56.532;21.020;2024-03-08T01:34:13;7.45;;;3.50;;
73437;SDS011;66471;56.532;21.020;2024-03-08T01:36:40;6.67;;;3.40;;
73437;SDS011;66471;56.532;21.020;2024-03-08T01:39:07;5.88;;;2.60;;
73437;SDS011;66471;56.532;21.020;2024-03-08T01:41:36;5.50;;;2.80;;
73437;SDS011;66471;56.532;21.020;2024-03-08T01:44:03;5.38;;;2.40;;
73437;SDS011;66471;56.532;21.020;2024-03-08T01:46:31;6.07;;;2.35;;
73437;SDS011;66471;56.532;21.020;2024-03-08T01:48:59;5.27;;;2.63;;
73437;SDS011;66471;56.532;21.020;2024-03-08T01:51:28;10.57;;;5.88;;
73437;SDS011;66471;56.532;21.020;2024-03-08T01:53:57;8.15;;;3.28;;
73437;SDS011;66471;56.532;21.020;2024-03-08T01:56:26;11.38;;;4.88;;
73437;SDS011;66471;56.532;21.020;2024-03-08T01:58:54;6.70;;;2.92;;
73437;SDS011;66471;56.532;21.020;2024-03-08T02:01:21;6.07;;;2.80;;
73437;SDS011;66471;56.532;21.020;2024-03-08T02:03:49;5.05;;;2.38;;
73437;SDS011;66471;56.532;21.020;2024-03-08T02:06:16;6.03;;;2.47;;
73437;SDS011;66471;56.532;21.020;2024-03-08T02:08:44;5.80;;;2.78;;
73437;SDS011;66471;56.532;21.020;2024-03-08T02:11:13;6.93;;;2.95;;
73437;SDS011;66471;56.532;21.020;2024-03-08T02:13:42;6.30;;;2.67;;
73437;SDS011;66471;56.532;21.020;2024-03-08T02:16:09;6.28;;;2.92;;
73437;SDS011;66471;56.532;21.020;2024-03-08T02:18:36;5.22;;;2.50;;
73437;SDS011;66471;56.532;21.020;2024-03-08T02:21:06;5.82;;;2.08;;
73437;SDS011;66471;56.532;21.020;2024-03-08T02:23:35;5.78;;;2.38;;
73437;SDS011;66471;56.532;21.020;2024-03-08T02:26:04;5.93;;;2.53;;
73437;SDS011;66471;56.532;21.020;2024-03-08T02:28:35;5.25;;;2.55;;
73437;SDS011;66471;56.532;21.020;2024-03-08T02:31:03;6.03;;;2.63;;
73437;SDS011;66471;56.532;21.020;2024-03-08T02:33:34;5.32;;;2.25;;
73437;SDS011;66471;56.532;21.020;2024-03-08T02:36:01;6.15;;;3.00;;
73437;SDS011;66471;56.532;21.020;2024-03-08T02:38:29;5.37;;;2.80;;
73437;SDS011;66471;56.532;21.020;2024-03-08T02:40:56;5.18;;;2.60;;
73437;SDS011;66471;56.532;21.020;2024-03-08T02:43:23;8.88;;;4.25;;
73437;SDS011;66471;56.532;21.020;2024-03-08T02:45:51;5.72;;;3.15;;
73437;SDS011;66471;56.532;21.020;2024-03-08T02:48:21;6.32;;;3.60;;
73437;SDS011;66471;56.532;21.020;2024-03-08T02:50:49;6.50;;;2.90;;
73437;SDS011;66471;56.532;21.020;2024-03-08T02:53:18;7.63;;;3.40;;
73437;SDS011;66471;56.532;21.020;2024-03-08T02:55:46;6.65;;;3.20;;
73437;SDS011;66471;56.532;21.020;2024-03-08T02:58:13;7.07;;;3.15;;
73437;SDS011;66471;56.532;21.020;2024-03-08T03:00:41;7.10;;;3.90;;
73437;SDS011;66471;56.532;21.020;2024-03-08T03:03:11;6.87;;;3.10;;
73437;SDS011;66471;56.532;21.020;2024-03-08T03:05:39;7.07;;;3.22;;
73437;SDS011;66471;56.532;21.020;2024-03-08T03:08:14;7.47;;;3.88;;
73437;SDS011;66471;56.532;21.020;2024-03-08T03:10:44;14.20;;;5.15;;
73437;SDS011;66471;56.532;21.020;2024-03-08T03:13:11;12.73;;;5.00;;
73437;SDS011;66471;56.532;21.020;2024-03-08T03:15:39;6.20;;;3.43;;
73437;SDS011;66471;56.532;21.020;2024-03-08T03:18:08;7.30;;;3.22;;
73437;SDS011;66471;56.532;21.020;2024-03-08T03:20:36;5.95;;;3.20;;
73437;SDS011;66471;56.532;21.020;2024-03-08T03:23:10;8.30;;;4.55;;
73437;SDS011;66471;56.532;21.020;2024-03-08T03:25:42;6.97;;;3.70;;
73437;SDS011;66471;56.532;21.020;2024-03-08T03:28:09;8.60;;;4.83;;
73437;SDS011;66471;56.532;21.020;2024-03-08T03:30:41;8.88;;;4.72;;
73437;SDS011;66471;56.532;21.020;2024-03-08T03:33:08;7.40;;;3.45;;
73437;SDS011;66471;56.532;21.020;2024-03-08T03:35:37;7.75;;;3.40;;
73437;SDS011;66471;56.532;21.020;2024-03-08T03:38:04;6.93;;;3.63;;
73437;SDS011;66471;56.532;21.020;2024-03-08T03:40:37;5.13;;;2.53;;
73437;SDS011;66471;56.532;21.020;2024-03-08T03:43:07;7.13;;;3.25;;
73437;SDS011;66471;56.532;21.020;2024-03-08T03:45:36;11.45;;;5.97;;
73437;SDS011;66471;56.532;21.020;2024-03-08T03:48:06;22.25;;;11.10;;
73437;SDS011;66471;56.532;21.020;2024-03-08T03:50:37;10.98;;;6.25;;
73437;SDS011;66471;56.532;21.020;2024-03-08T03:53:08;8.77;;;3.63;;
73437;SDS011;66471;56.532;21.020;2024-03-08T03:55:36;7.30;;;3.70;;
73437;SDS011;66471;56.532;21.020;2024-03-08T03:58:07;7.25;;;4.07;;
73437;SDS011;66471;56.532;21.020;2024-03-08T04:00:37;9.52;;;3.50;;
73437;SDS011;66471;56.532;21.020;2024-03-08T04:03:05;7.43;;;3.80;;
73437;SDS011;66471;56.532;21.020;2024-03-08T04:05:34;7.77;;;3.37;;
73437;SDS011;66471;56.532;21.020;2024-03-08T04:08:01;7.38;;;4.40;;
73437;SDS011;66471;56.532;21.020;2024-03-08T04:10:29;11.07;;;4.28;;
73437;SDS011;66471;56.532;21.020;2024-03-08T04:12:57;9.07;;;4.60;;
73437;SDS011;66471;56.532;21.020;2024-03-08T04:15:24;10.07;;;4.32;;
73437;SDS011;66471;56.532;21.020;2024-03-08T04:17:51;10.80;;;4.73;;
73437;SDS011;66471;56.532;21.020;2024-03-08T04:20:20;9.80;;;4.97;;
73437;SDS011;66471;56.532;21.020;2024-03-08T04:22:48;9.93;;;4.75;;
73437;SDS011;66471;56.532;21.020;2024-03-08T04:25:16;8.43;;;4.70;;
73437;SDS011;66471;56.532;21.020;2024-03-08T04:27:43;13.20;;;6.10;;
73437;SDS011;66471;56.532;21.020;2024-03-08T04:30:11;14.20;;;6.07;;
73437;SDS011;66471;56.532;21.020;2024-03-08T04:32:39;10.15;;;4.70;;
73437;SDS011;66471;56.532;21.020;2024-03-08T04:35:08;11.20;;;4.60;;
73437;SDS011;66471;56.532;21.020;2024-03-08T04:37:35;12.30;;;5.55;;
73437;SDS011;66471;56.532;21.020;2024-03-08T04:40:03;9.75;;;5.65;;
73437;SDS011;66471;56.532;21.020;2024-03-08T04:42:30;8.00;;;4.47;;
73437;SDS011;66471;56.532;21.020;2024-03-08T04:44:59;9.77;;;5.20;;
73437;SDS011;66471;56.532;21.020;2024-03-08T04:47:27;11.75;;;4.47;;
73437;SDS011;66471;56.532;21.020;2024-03-08T04:49:54;8.32;;;4.43;;
73437;SDS011;66471;56.532;21.020;2024-03-08T04:52:23;9.55;;;4.35;;
73437;SDS011;66471;56.532;21.020;2024-03-08T04:54:51;8.97;;;4.67;;
73437;SDS011;66471;56.532;21.020;2024-03-08T04:57:18;9.63;;;4.88;;
73437;SDS011;66471;56.532;21.020;2024-03-08T04:59:46;8.02;;;3.78;;
73437;SDS011;66471;56.532;21.020;2024-03-08T05:02:14;14.65;;;6.07;;
73437;SDS011;66471;56.532;21.020;2024-03-08T05:04:41;9.20;;;5.32;;
73437;SDS011;66471;56.532;21.020;2024-03-08T05:07:09;9.77;;;3.60;;
73437;SDS011;66471;56.532;21.020;2024-03-08T05:09:36;8.85;;;4.93;;
73437;SDS011;66471;56.532;21.020;2024-03-08T05:12:04;14.30;;;5.35;;
73437;SDS011;66471;56.532;21.020;2024-03-08T05:14:32;14.57;;;6.40;;
73437;SDS011;66471;56.532;21.020;2024-03-08T05:17:01;15.00;;;6.78;;
73437;SDS011;66471;56.532;21.020;2024-03-08T05:19:28;10.47;;;4.53;;
73437;SDS011;66471;56.532;21.020;2024-03-08T05:22:00;10.85;;;4.68;;
73437;SDS011;66471;56.532;21.020;2024-03-08T05:24:28;13.70;;;5.53;;
73437;SDS011;66471;56.532;21.020;2024-03-08T05:26:57;9.43;;;3.72;;
73437;SDS011;66471;56.532;21.020;2024-03-08T05:29:26;6.68;;;2.72;;
73437;SDS011;66471;56.532;21.020;2024-03-08T05:31:53;15.10;;;5.47;;
73437;SDS011;66471;56.532;21.020;2024-03-08T05:34:21;8.77;;;3.55;;
73437;SDS011;66471;56.532;21.020;2024-03-08T05:36:49;7.05;;;3.08;;
73437;SDS011;66471;56.532;21.020;2024-03-08T05:39:18;8.73;;;3.80;;
73437;SDS011;66471;56.532;21.020;2024-03-08T05:41:46;7.55;;;3.40;;
73437;SDS011;66471;56.532;21.020;2024-03-08T05:44:14;7.97;;;4.03;;
73437;SDS011;66471;56.532;21.020;2024-03-08T05:46:44;7.78;;;3.17;;
73437;SDS011;66471;56.532;21.020;2024-03-08T05:49:11;6.80;;;3.80;;
73437;SDS011;66471;56.532;21.020;2024-03-08T05:51:39;7.18;;;3.55;;
73437;SDS011;66471;56.532;21.020;2024-03-08T05:54:07;9.52;;;3.75;;
73437;SDS011;66471;56.532;21.020;2024-03-08T05:56:37;9.93;;;4.87;;
73437;SDS011;66471;56.532;21.020;2024-03-08T05:59:09;6.45;;;3.30;;
73437;SDS011;66471;56.532;21.020;2024-03-08T06:01:37;8.48;;;3.50;;
73437;SDS011;66471;56.532;21.020;2024-03-08T06:04:04;7.18;;;3.53;;
73437;SDS011;66471;56.532;21.020;2024-03-08T06:06:31;6.28;;;3.10;;
73437;SDS011;66471;56.532;21.020;2024-03-08T06:08:58;10.47;;;3.93;;
73437;SDS011;66471;56.532;21.020;2024-03-08T06:11:26;9.18;;;3.25;;
73437;SDS011;66471;56.532;21.020;2024-03-08T06:13:58;9.68;;;4.47;;
73437;SDS011;66471;56.532;21.020;2024-03-08T06:16:26;12.55;;;5.45;;
73437;SDS011;66471;56.532;21.020;2024-03-08T06:18:56;9.55;;;3.72;;
73437;SDS011;66471;56.532;21.020;2024-03-08T06:21:24;13.00;;;5.00;;
73437;SDS011;66471;56.532;21.020;2024-03-08T06:23:54;15.05;;;5.78;;
73437;SDS011;66471;56.532;21.020;2024-03-08T06:26:24;7.80;;;3.58;;
73437;SDS011;66471;56.532;21.020;2024-03-08T06:28:56;8.35;;;3.22;;
73437;SDS011;66471;56.532;21.020;2024-03-08T06:31:25;5.88;;;3.40;;
73437;SDS011;66471;56.532;21.020;2024-03-08T06:33:52;7.57;;;2.83;;
73437;SDS011;66471;56.532;21.020;2024-03-08T06:36:23;5.93;;;2.15;;
73437;SDS011;66471;56.532;21.020;2024-03-08T06:38:51;5.88;;;2.92;;
73437;SDS011;66471;56.532;21.020;2024-03-08T06:41:18;4.70;;;2.15;;
73437;SDS011;66471;56.532;21.020;2024-03-08T06:43:46;5.80;;;2.50;;
73437;SDS011;66471;56.532;21.020;2024-03-08T06:46:18;5.47;;;2.00;;
73437;SDS011;66471;56.532;21.020;2024-03-08T06:48:47;5.88;;;2.50;;
73437;SDS011;66471;56.532;21.020;2024-03-08T06:51:16;6.82;;;2.15;;
73437;SDS011;66471;56.532;21.020;2024-03-08T06:53:44;7.05;;;2.83;;
73437;SDS011;66471;56.532;21.020;2024-03-08T06:56:12;7.65;;;3.45;;
73437;SDS011;66471;56.532;21.020;2024-03-08T06:58:40;11.03;;;4.50;;
73437;SDS011;66471;56.532;21.020;2024-03-08T07:01:07;19.35;;;8.95;;
73437;SDS011;66471;56.532;21.020;2024-03-08T07:03:41;10.15;;;4.78;;
73437;SDS011;66471;56.532;21.020;2024-03-08T07:06:11;10.63;;;4.70;;
73437;SDS011;66471;56.532;21.020;2024-03-08T07:08:39;13.75;;;6.45;;
73437;SDS011;66471;56.532;21.020;2024-03-08T07:11:06;5.07;;;2.00;;
73437;SDS011;66471;56.532;21.020;2024-03-08T07:13:33;5.30;;;2.58;;
73437;SDS011;66471;56.532;21.020;2024-03-08T07:16:01;11.43;;;3.17;;
73437;SDS011;66471;56.532;21.020;2024-03-08T07:18:28;6.53;;;3.00;;
73437;SDS011;66471;56.532;21.020;2024-03-08T07:20:57;8.40;;;4.32;;
73437;SDS011;66471;56.532;21.020;2024-03-08T07:23:25;5.77;;;2.63;;
73437;SDS011;66471;56.532;21.020;2024-03-08T07:26:10;5.63;;;2.50;;
73437;SDS011;66471;56.532;21.020;2024-03-08T07:28:41;5.55;;;2.75;;
73437;SDS011;66471;56.532;21.020;2024-03-08T07:31:08;5.93;;;2.42;;
73437;SDS011;66471;56.532;21.020;2024-03-08T07:33:41;12.98;;;4.85;;
73437;SDS011;66471;56.532;21.020;2024-03-08T07:36:09;13.80;;;5.97;;
73437;SDS011;66471;56.532;21.020;2024-03-08T07:38:36;15.13;;;8.10;;
73437;SDS011;66471;56.532;21.020;2024-03-08T07:41:04;10.30;;;3.80;;
73437;SDS011;66471;56.532;21.020;2024-03-08T07:43:31;7.70;;;3.00;;
73437;SDS011;66471;56.532;21.020;2024-03-08T07:45:59;8.65;;;3.22;;
73437;SDS011;66471;56.532;21.020;2024-03-08T07:48:27;7.67;;;3.60;;
73437;SDS011;66471;56.532;21.020;2024-03-08T07:50:54;6.20;;;2.55;;
73437;SDS011;66471;56.532;21.020;2024-03-08T07:53:22;6.43;;;2.80;;
73437;SDS011;66471;56.532;21.020;2024-03-08T07:55:51;5.43;;;1.83;;
73437;SDS011;66471;56.532;21.020;2024-03-08T07:58:19;6.20;;;2.38;;
73437;SDS011;66471;56.532;21.020;2024-03-08T08:00:46;6.80;;;2.40;;
73437;SDS011;66471;56.532;21.020;2024-03-08T08:03:13;13.68;;;6.53;;
73437;SDS011;66471;56.532;21.020;2024-03-08T08:05:41;8.20;;;3.55;;
73437;SDS011;66471;56.532;21.020;2024-03-08T08:08:09;13.10;;;5.80;;
73437;SDS011;66471;56.532;21.020;2024-03-08T08:10:38;9.80;;;4.47;;
73437;SDS011;66471;56.532;21.020;2024-03-08T08:13:05;8.93;;;4.77;;
73437;SDS011;66471;56.532;21.020;2024-03-08T08:15:32;4.50;;;1.85;;
73437;SDS011;66471;56.532;21.020;2024-03-08T08:18:02;5.45;;;2.15;;
73437;SDS011;66471;56.532;21.020;2024-03-08T08:20:33;4.93;;;2.20;;
73437;SDS011;66471;56.532;21.020;2024-03-08T08:23:00;5.07;;;2.58;;
73437;SDS011;66471;56.532;21.020;2024-03-08T08:25:28;19.63;;;4.30;;
73437;SDS011;66471;56.532;21.020;2024-03-08T08:27:56;8.02;;;3.00;;
73437;SDS011;66471;56.532;21.020;2024-03-08T08:30:23;5.03;;;1.92;;
73437;SDS011;66471;56.532;21.020;2024-03-08T08:32:50;7.60;;;2.90;;
73437;SDS011;66471;56.532;21.020;2024-03-08T08:35:17;10.02;;;4.28;;
73437;SDS011;66471;56.532;21.020;2024-03-08T08:37:51;5.77;;;2.53;;
73437;SDS011;66471;56.532;21.020;2024-03-08T08:40:20;5.85;;;2.28;;
73437;SDS011;66471;56.532;21.020;2024-03-08T08:42:49;13.90;;;6.18;;
73437;SDS011;66471;56.532;21.020;2024-03-08T08:45:16;10.77;;;4.80;;
73437;SDS011;66471;56.532;21.020;2024-03-08T08:47:51;10.65;;;4.68;;
73437;SDS011;66471;56.532;21.020;2024-03-08T08:50:19;15.77;;;7.00;;
73437;SDS011;66471;56.532;21.020;2024-03-08T08:52:50;6.88;;;3.40;;
73437;SDS011;66471;56.532;21.020;2024-03-08T08:55:18;6.70;;;3.00;;
73437;SDS011;66471;56.532;21.020;2024-03-08T08:57:48;9.45;;;3.95;;
73437;SDS011;66471;56.532;21.020;2024-03-08T09:00:15;7.70;;;3.17;;
73437;SDS011;66471;56.532;21.020;2024-03-08T09:02:43;26.40;;;9.43;;
73437;SDS011;66471;56.532;21.020;2024-03-08T09:05:11;22.50;;;8.35;;
73437;SDS011;66471;56.532;21.020;2024-03-08T09:07:38;12.48;;;5.13;;
73437;SDS011;66471;56.532;21.020;2024-03-08T09:10:06;8.13;;;2.85;;
73437;SDS011;66471;56.532;21.020;2024-03-08T09:12:39;5.85;;;2.38;;
73437;SDS011;66471;56.532;21.020;2024-03-08T09:15:07;5.73;;;2.80;;
73437;SDS011;66471;56.532;21.020;2024-03-08T09:17:40;6.60;;;3.13;;
73437;SDS011;66471;56.532;21.020;2024-03-08T09:20:08;11.05;;;6.28;;
73437;SDS011;66471;56.532;21.020;2024-03-08T09:22:37;5.68;;;3.47;;
73437;SDS011;66471;56.532;21.020;2024-03-08T09:25:04;6.45;;;2.67;;
73437;SDS011;66471;56.532;21.020;2024-03-08T09:27:32;6.27;;;3.33;;
73437;SDS011;66471;56.532;21.020;2024-03-08T09:30:05;7.43;;;3.90;;
73437;SDS011;66471;56.532;21.020;2024-03-08T09:32:34;11.40;;;6.03;;
73437;SDS011;66471;56.532;21.020;2024-03-08T09:35:02;6.35;;;2.58;;
73437;SDS011;66471;56.532;21.020;2024-03-08T09:37:29;8.52;;;4.32;;
73437;SDS011;66471;56.532;21.020;2024-03-08T09:39:57;16.80;;;3.40;;
73437;SDS011;66471;56.532;21.020;2024-03-08T09:42:26;12.07;;;4.63;;
73437;SDS011;66471;56.532;21.020;2024-03-08T09:44:53;12.15;;;3.00;;
73437;SDS011;66471;56.532;21.020;2024-03-08T09:47:21;8.50;;;3.83;;
73437;SDS011;66471;56.532;21.020;2024-03-08T09:49:51;5.03;;;2.40;;
73437;SDS011;66471;56.532;21.020;2024-03-08T09:52:20;6.37;;;2.50;;
73437;SDS011;66471;56.532;21.020;2024-03-08T09:54:48;10.00;;;2.53;;
73437;SDS011;66471;56.532;21.020;2024-03-08T09:57:16;8.20;;;2.88;;
73437;SDS011;66471;56.532;21.020;2024-03-08T09:59:46;5.95;;;2.90;;
73437;SDS011;66471;56.532;21.020;2024-03-08T10:02:15;4.88;;;2.38;;
73437;SDS011;66471;56.532;21.020;2024-03-08T10:04:43;5.20;;;2.57;;
73437;SDS011;66471;56.532;21.020;2024-03-08T10:07:13;6.60;;;2.92;;
73437;SDS011;66471;56.532;21.020;2024-03-08T10:09:40;5.97;;;3.58;;
73437;SDS011;66471;56.532;21.020;2024-03-08T10:12:14;7.82;;;2.92;;
73437;SDS011;66471;56.532;21.020;2024-03-08T10:14:46;6.22;;;3.03;;
73437;SDS011;66471;56.532;21.020;2024-03-08T10:17:13;9.93;;;3.93;;
73437;SDS011;66471;56.532;21.020;2024-03-08T10:19:49;14.52;;;5.82;;
73437;SDS011;66471;56.532;21.020;2024-03-08T10:22:17;20.08;;;5.82;;
73437;SDS011;66471;56.532;21.020;2024-03-08T10:24:46;11.00;;;4.07;;
73437;SDS011;66471;56.532;21.020;2024-03-08T10:27:14;5.20;;;2.88;;
73437;SDS011;66471;56.532;21.020;2024-03-08T10:29:46;5.43;;;2.50;;
73437;SDS011;66471;56.532;21.020;2024-03-08T10:32:14;7.22;;;2.70;;
73437;SDS011;66471;56.532;21.020;2024-03-08T14:36:01;16.50;;;8.27;;
73437;SDS011;66471;56.532;21.020;2024-03-08T14:38:29;12.23;;;5.70;;
73437;SDS011;66471;56.532;21.020;2024-03-08T14:40:56;8.02;;;4.95;;
73437;SDS011;66471;56.532;21.020;2024-03-08T14:43:24;8.88;;;4.00;;
73437;SDS011;66471;56.532;21.020;2024-03-08T14:45:53;8.25;;;4.03;;
73437;SDS011;66471;56.532;21.020;2024-03-08T14:48:20;37.50;;;13.63;;
73437;SDS011;66471;56.532;21.020;2024-03-08T14:50:48;19.67;;;8.63;;
73437;SDS011;66471;56.532;21.020;2024-03-08T14:53:15;24.15;;;11.65;;
73437;SDS011;66471;56.532;21.020;2024-03-08T14:55:43;61.47;;;20.10;;
73437;SDS011;66471;56.532;21.020;2024-03-08T14:58:14;34.72;;;12.88;;
73437;SDS011;66471;56.532;21.020;2024-03-08T15:00:41;41.93;;;18.73;;
73437;SDS011;66471;56.532;21.020;2024-03-08T15:03:10;44.13;;;24.35;;
73437;SDS011;66471;56.532;21.020;2024-03-08T15:05:43;27.15;;;16.35;;
73437;SDS011;66471;56.532;21.020;2024-03-08T15:08:14;33.90;;;16.63;;
73437;SDS011;66471;56.532;21.020;2024-03-08T15:10:47;42.30;;;20.23;;
73437;SDS011;66471;56.532;21.020;2024-03-08T15:13:21;65.77;;;28.83;;
73437;SDS011;66471;56.532;21.020;2024-03-08T15:15:50;42.92;;;17.63;;
73437;SDS011;66471;56.532;21.020;2024-03-08T15:18:24;22.27;;;8.73;;
73437;SDS011;66471;56.532;21.020;2024-03-08T15:20:52;29.67;;;17.92;;
73437;SDS011;66471;56.532;21.020;2024-03-08T15:23:20;59.03;;;22.83;;
73437;SDS011;66471;56.532;21.020;2024-03-08T15:25:48;37.57;;;14.43;;
73437;SDS011;66471;56.532;21.020;2024-03-08T15:28:18;81.07;;;27.90;;
73437;SDS011;66471;56.532;21.020;2024-03-08T15:30:47;60.17;;;21.88;;
73437;SDS011;66471;56.532;21.020;2024-03-08T15:33:20;51.08;;;22.52;;
73437;SDS011;66471;56.532;21.020;2024-03-08T15:35:55;11.73;;;7.05;;
73437;SDS011;66471;56.532;21.020;2024-03-08T15:38:30;12.03;;;6.63;;
